Time;durP1;ratioP1;P1;durP2;ratioP2;P2;SDS_P1;SDS_P2;PMS_P1;PMS_P2;Temp;Humidity;BMP_temperature;BMP_pressure;BME280_temperature;BME280_humidity;BME280_pressure;Samples;Min_cycle;Max_cycle;Signal;HPM_P1;HPM_P2
2022/03/23 00:02:05;;;;;;;34.97;13.65;;;;;;;;;;5078921;28;20028;-68
2022/03/23 00:04:31;;;;;;;35.72;14.88;;;;;;;;;;5080582;28;20033;-64
2022/03/23 00:06:59;;;;;;;31.75;13.13;;;;;;;;;;5070155;28;20025;-63
2022/03/23 00:09:26;;;;;;;30.83;14.00;;;;;;;;;;5071505;28;20024;-65
2022/03/23 00:11:52;;;;;;;41.15;13.73;;;;;;;;;;5053739;28;20044;-67
2022/03/23 00:14:18;;;;;;;30.92;13.50;;;;;;;;;;5057124;28;20025;-65
2022/03/23 00:16:44;;;;;;;36.63;13.18;;;;;;;;;;5054406;28;20029;-66
2022/03/23 00:19:10;;;;;;;31.27;13.25;;;;;;;;;;5055738;28;20500;-65
2022/03/23 00:21:37;;;;;;;32.05;12.27;;;;;;;;;;5062127;28;20036;-64
2022/03/23 00:24:04;;;;;;;29.30;12.13;;;;;;;;;;5072344;28;20082;-66
2022/03/23 00:26:30;;;;;;;33.03;12.18;;;;;;;;;;5069606;28;20118;-66
2022/03/23 00:28:56;;;;;;;33.25;12.07;;;;;;;;;;5075642;28;20039;-66
2022/03/23 00:31:22;;;;;;;31.23;12.57;;;;;;;;;;5065233;28;20382;-67
2022/03/23 00:33:50;;;;;;;30.00;11.68;;;;;;;;;;5065608;28;20567;-66
2022/03/23 00:36:16;;;;;;;28.42;11.23;;;;;;;;;;5068798;28;20032;-66
2022/03/23 00:38:43;;;;;;;28.50;11.40;;;;;;;;;;5080373;28;20020;-66
2022/03/23 00:41:10;;;;;;;30.73;11.40;;;;;;;;;;5065156;28;20025;-66
2022/03/23 00:43:36;;;;;;;24.63;10.50;;;;;;;;;;5074860;28;20452;-66
2022/03/23 00:46:03;;;;;;;24.23;11.20;;;;;;;;;;5073979;28;20050;-65
2022/03/23 00:48:29;;;;;;;27.13;10.60;;;;;;;;;;5074543;28;20508;-66
2022/03/23 00:50:55;;;;;;;27.10;10.48;;;;;;;;;;5073699;28;20036;-66
2022/03/23 00:53:21;;;;;;;23.88;10.18;;;;;;;;;;5075417;28;20104;-65
2022/03/23 00:55:47;;;;;;;28.23;10.77;;;;;;;;;;5069050;28;20411;-66
2022/03/23 00:58:13;;;;;;;26.67;10.90;;;;;;;;;;5066974;28;20648;-66
2022/03/23 01:00:41;;;;;;;28.48;10.95;;;;;;;;;;5072016;28;20115;-66
2022/03/23 01:03:07;;;;;;;24.90;10.23;;;;;;;;;;5058674;28;20064;-65
2022/03/23 01:05:33;;;;;;;25.85;10.48;;;;;;;;;;5060087;28;20458;-63
2022/03/23 01:07:59;;;;;;;24.30;11.10;;;;;;;;;;5065134;28;20047;-63
2022/03/23 01:10:25;;;;;;;25.52;10.70;;;;;;;;;;5071123;28;20028;-62
2022/03/23 01:12:53;;;;;;;24.48;10.38;;;;;;;;;;5068068;28;20032;-62
2022/03/23 01:15:19;;;;;;;24.63;10.23;;;;;;;;;;5070553;28;20117;-64
2022/03/23 01:17:46;;;;;;;26.58;10.95;;;;;;;;;;5059937;28;20117;-65
2022/03/23 01:20:14;;;;;;;22.73;10.07;;;;;;;;;;5064740;28;20025;-65
2022/03/23 01:22:40;;;;;;;25.55;9.98;;;;;;;;;;5055081;28;20040;-64
2022/03/23 01:25:10;;;;;;;23.33;9.63;;;;;;;;;;5062039;28;20043;-63
2022/03/23 01:27:37;;;;;;;25.00;10.15;;;;;;;;;;5055652;28;20493;-62
2022/03/23 01:30:05;;;;;;;24.05;9.80;;;;;;;;;;5060352;28;20036;-65
2022/03/23 01:32:31;;;;;;;22.42;10.00;;;;;;;;;;5049540;28;20044;-63
2022/03/23 01:34:57;;;;;;;26.45;10.52;;;;;;;;;;5049983;28;20087;-63
2022/03/23 01:37:23;;;;;;;24.42;10.30;;;;;;;;;;5050582;28;20547;-64
2022/03/23 01:39:49;;;;;;;26.90;10.75;;;;;;;;;;5050495;28;20075;-64
2022/03/23 01:42:15;;;;;;;25.15;10.68;;;;;;;;;;5050471;28;20457;-64
2022/03/23 01:44:41;;;;;;;23.98;10.52;;;;;;;;;;5053865;28;20746;-63
2022/03/23 01:47:09;;;;;;;24.45;10.65;;;;;;;;;;5052262;28;20056;-63
2022/03/23 01:50:03;;;;;;;24.23;10.63;;;;;;;;;;5054297;28;20039;-63
2022/03/23 01:52:31;;;;;;;24.73;10.38;;;;;;;;;;5058728;28;20109;-64
2022/03/23 01:54:58;;;;;;;23.27;10.45;;;;;;;;;;5069038;28;20034;-63
2022/03/23 01:57:24;;;;;;;24.17;10.52;;;;;;;;;;5066350;28;20461;-63
2022/03/23 01:59:50;;;;;;;22.48;10.65;;;;;;;;;;5059321;28;20047;-64
2022/03/23 02:02:16;;;;;;;23.80;10.63;;;;;;;;;;5062534;28;20037;-64
2022/03/23 02:04:43;;;;;;;22.35;10.23;;;;;;;;;;5063139;28;20029;-64
2022/03/23 02:07:10;;;;;;;24.05;10.50;;;;;;;;;;5069986;28;20055;-63
2022/03/23 02:09:36;;;;;;;23.90;10.02;;;;;;;;;;5059268;28;20037;-65
2022/03/23 02:12:05;;;;;;;23.80;10.25;;;;;;;;;;5049225;28;20060;-63
2022/03/23 02:14:31;;;;;;;24.77;10.25;;;;;;;;;;5058378;28;20028;-63
2022/03/23 02:16:57;;;;;;;22.20;9.60;;;;;;;;;;5068885;28;20037;-65
2022/03/23 02:19:23;;;;;;;22.85;10.48;;;;;;;;;;5053242;28;20029;-66
2022/03/23 02:21:49;;;;;;;23.30;10.95;;;;;;;;;;5059911;28;20107;-65
2022/03/23 02:24:16;;;;;;;22.80;10.50;;;;;;;;;;5069733;28;20047;-63
2022/03/23 02:26:42;;;;;;;26.30;10.60;;;;;;;;;;5069096;28;20450;-64
2022/03/23 02:29:09;;;;;;;22.95;10.48;;;;;;;;;;5060310;28;20037;-65
2022/03/23 02:31:35;;;;;;;22.67;10.48;;;;;;;;;;5069430;28;20075;-66
2022/03/23 02:34:02;;;;;;;22.85;10.32;;;;;;;;;;5067330;28;20033;-65
2022/03/23 02:36:28;;;;;;;23.83;10.40;;;;;;;;;;5068389;28;20038;-63
2022/03/23 02:38:54;;;;;;;23.48;10.50;;;;;;;;;;5069389;28;20117;-63
2022/03/23 02:41:20;;;;;;;22.65;10.15;;;;;;;;;;5068365;28;20039;-63
2022/03/23 02:43:46;;;;;;;25.25;10.52;;;;;;;;;;5066689;28;20400;-65
2022/03/23 02:46:14;;;;;;;24.20;10.55;;;;;;;;;;5053722;28;20036;-65
2022/03/23 02:48:40;;;;;;;22.42;10.45;;;;;;;;;;5049663;28;20032;-65
2022/03/23 02:51:06;;;;;;;22.35;10.05;;;;;;;;;;5050830;28;20071;-65
2022/03/23 03:01:54;;;;;;;23.77;10.73;;;;;;;;;;5057617;28;20452;-65
2022/03/23 03:04:20;;;;;;;24.13;10.30;;;;;;;;;;5068858;28;20040;-63
2022/03/23 03:06:47;;;;;;;23.40;10.50;;;;;;;;;;5069387;28;20031;-62
2022/03/23 03:09:14;;;;;;;23.13;10.82;;;;;;;;;;5059875;28;20037;-62
2022/03/23 03:11:43;;;;;;;23.92;10.20;;;;;;;;;;5065968;28;20086;-64
2022/03/23 03:14:09;;;;;;;25.85;10.48;;;;;;;;;;5052210;28;20025;-63
2022/03/23 03:16:35;;;;;;;25.17;10.88;;;;;;;;;;5058651;28;20025;-63
2022/03/23 03:19:01;;;;;;;25.23;10.57;;;;;;;;;;5066622;28;20029;-64
2022/03/23 03:21:27;;;;;;;25.42;10.55;;;;;;;;;;5068219;28;20378;-63
2022/03/23 03:23:53;;;;;;;25.13;9.98;;;;;;;;;;5061655;28;20092;-63
2022/03/23 03:26:19;;;;;;;25.02;10.02;;;;;;;;;;5052521;28;20760;-62
2022/03/23 03:28:46;;;;;;;24.00;10.10;;;;;;;;;;5049234;28;20143;-63
2022/03/23 03:31:13;;;;;;;23.70;9.43;;;;;;;;;;5053124;28;20044;-65
2022/03/23 03:33:39;;;;;;;22.77;9.85;;;;;;;;;;5068561;28;20544;-65
2022/03/23 03:36:06;;;;;;;24.05;9.63;;;;;;;;;;5062521;28;20083;-63
2022/03/23 03:38:32;;;;;;;26.75;9.90;;;;;;;;;;5049499;28;20037;-65
2022/03/23 03:40:58;;;;;;;24.52;9.82;;;;;;;;;;5049195;28;20442;-65
2022/03/23 03:43:25;;;;;;;24.52;9.60;;;;;;;;;;5049480;28;20068;-63
2022/03/23 03:45:52;;;;;;;26.13;10.40;;;;;;;;;;5049492;28;20025;-65
2022/03/23 03:48:18;;;;;;;22.38;9.13;;;;;;;;;;5069583;28;20548;-63
2022/03/23 03:50:45;;;;;;;23.00;9.68;;;;;;;;;;5054185;28;20040;-63
2022/03/23 03:53:11;;;;;;;24.48;9.48;;;;;;;;;;5052963;28;20041;-62
2022/03/23 03:55:37;;;;;;;23.45;9.75;;;;;;;;;;5059207;28;20039;-63
2022/03/23 03:58:04;;;;;;;25.50;10.27;;;;;;;;;;5072916;28;20485;-62
2022/03/23 04:00:31;;;;;;;23.55;9.93;;;;;;;;;;5067799;28;20489;-62
2022/03/23 04:02:57;;;;;;;25.42;10.25;;;;;;;;;;5068253;28;20172;-63
2022/03/23 04:05:23;;;;;;;24.45;9.80;;;;;;;;;;5072672;28;20397;-65
2022/03/23 04:07:49;;;;;;;24.58;9.88;;;;;;;;;;5072759;28;20063;-63
2022/03/23 04:10:15;;;;;;;24.30;9.88;;;;;;;;;;5060175;28;20043;-62
2022/03/23 04:12:41;;;;;;;23.92;9.50;;;;;;;;;;5053190;28;20436;-65
2022/03/23 04:15:08;;;;;;;22.52;9.63;;;;;;;;;;5052787;28;20411;-65
2022/03/23 04:17:34;;;;;;;24.52;9.98;;;;;;;;;;5064917;28;20035;-63
2022/03/23 04:20:00;;;;;;;23.67;9.77;;;;;;;;;;5070671;28;20469;-62
2022/03/23 04:22:26;;;;;;;23.48;10.65;;;;;;;;;;5075478;28;20044;-65
2022/03/23 04:24:52;;;;;;;24.33;9.75;;;;;;;;;;5060766;28;20056;-64
2022/03/23 04:27:18;;;;;;;27.98;10.75;;;;;;;;;;5055631;28;20029;-66
2022/03/23 04:29:44;;;;;;;23.05;9.80;;;;;;;;;;5067365;28;20071;-62
2022/03/23 04:32:10;;;;;;;23.92;9.70;;;;;;;;;;5070180;28;20481;-62
2022/03/23 04:34:36;;;;;;;25.15;9.80;;;;;;;;;;5055870;28;20021;-63
2022/03/23 04:37:02;;;;;;;23.63;9.27;;;;;;;;;;5056674;28;20387;-63
2022/03/23 04:39:28;;;;;;;24.02;9.52;;;;;;;;;;5063204;28;20025;-64
2022/03/23 04:41:54;;;;;;;24.35;9.50;;;;;;;;;;5074805;28;20456;-65
2022/03/23 04:44:21;;;;;;;24.42;9.52;;;;;;;;;;5074757;28;20082;-65
2022/03/23 04:46:47;;;;;;;24.40;10.20;;;;;;;;;;5075117;28;20458;-64
2022/03/23 04:49:14;;;;;;;23.10;9.18;;;;;;;;;;5063644;28;20017;-65
2022/03/23 04:51:40;;;;;;;23.60;9.85;;;;;;;;;;5055454;28;20115;-65
2022/03/23 04:54:06;;;;;;;26.95;10.40;;;;;;;;;;5063073;28;20028;-65
2022/03/23 04:56:33;;;;;;;23.50;9.77;;;;;;;;;;5074991;28;20409;-62
2022/03/23 04:59:00;;;;;;;23.67;9.48;;;;;;;;;;5060035;28;20037;-62
2022/03/23 05:01:26;;;;;;;24.00;9.35;;;;;;;;;;5068950;28;20051;-62
2022/03/23 05:03:52;;;;;;;24.23;9.70;;;;;;;;;;5056603;28;20029;-61
2022/03/23 05:06:19;;;;;;;23.88;9.45;;;;;;;;;;5074633;28;20025;-65
2022/03/23 05:08:45;;;;;;;26.20;9.75;;;;;;;;;;5073270;28;20440;-66
2022/03/23 05:11:11;;;;;;;23.50;9.65;;;;;;;;;;5069647;28;20115;-64
2022/03/23 05:13:37;;;;;;;22.27;9.10;;;;;;;;;;5057143;28;20234;-65
2022/03/23 05:16:03;;;;;;;25.33;9.63;;;;;;;;;;5072769;28;20107;-65
2022/03/23 05:18:30;;;;;;;22.92;9.45;;;;;;;;;;5071409;28;20021;-63
2022/03/23 05:20:56;;;;;;;24.05;9.20;;;;;;;;;;5060127;28;20029;-65
2022/03/23 05:23:22;;;;;;;23.13;9.80;;;;;;;;;;5072555;28;20108;-63
2022/03/23 05:25:48;;;;;;;23.60;9.32;;;;;;;;;;5074476;28;20028;-63
2022/03/23 05:28:14;;;;;;;23.38;10.05;;;;;;;;;;5070248;28;20120;-66
2022/03/23 05:30:40;;;;;;;24.50;8.73;;;;;;;;;;5055550;28;20436;-66
2022/03/23 05:33:06;;;;;;;23.13;9.45;;;;;;;;;;5070421;28;20054;-65
2022/03/23 05:35:32;;;;;;;24.50;9.85;;;;;;;;;;5072615;28;20444;-65
2022/03/23 05:37:58;;;;;;;24.17;9.20;;;;;;;;;;5072100;28;20033;-65
2022/03/23 05:40:24;;;;;;;25.02;9.43;;;;;;;;;;5057658;28;20104;-66
2022/03/23 05:42:51;;;;;;;24.42;9.38;;;;;;;;;;5074113;28;20047;-65
2022/03/23 05:45:17;;;;;;;23.58;9.15;;;;;;;;;;5074619;28;20021;-62
2022/03/23 05:47:43;;;;;;;24.15;9.48;;;;;;;;;;5074380;28;20080;-63
2022/03/23 05:50:10;;;;;;;22.40;9.48;;;;;;;;;;5064135;28;20065;-64
2022/03/23 05:52:37;;;;;;;22.45;9.40;;;;;;;;;;5065855;28;20040;-64
2022/03/23 05:55:03;;;;;;;23.33;9.07;;;;;;;;;;5073972;28;20381;-62
2022/03/23 05:57:30;;;;;;;23.02;8.90;;;;;;;;;;5071309;28;20502;-64
2022/03/23 05:59:56;;;;;;;23.70;8.65;;;;;;;;;;5054125;28;20040;-63
2022/03/23 06:02:22;;;;;;;21.85;8.93;;;;;;;;;;5063675;28;20069;-63
2022/03/23 06:04:48;;;;;;;24.70;9.13;;;;;;;;;;5054060;28;20152;-65
2022/03/23 06:07:14;;;;;;;23.90;9.05;;;;;;;;;;5067564;28;20020;-66
2022/03/23 06:09:40;;;;;;;24.02;9.38;;;;;;;;;;5062476;28;20037;-66
2022/03/23 06:12:07;;;;;;;23.58;9.07;;;;;;;;;;5059987;28;20473;-64
2022/03/23 06:14:34;;;;;;;23.45;9.55;;;;;;;;;;5053255;28;20021;-65
2022/03/23 06:17:00;;;;;;;23.27;9.40;;;;;;;;;;5054342;28;20074;-64
2022/03/23 06:19:26;;;;;;;23.80;8.88;;;;;;;;;;5071791;28;20024;-66
2022/03/23 06:21:52;;;;;;;25.63;9.90;;;;;;;;;;5072047;28;20035;-64
2022/03/23 06:24:18;;;;;;;22.67;9.07;;;;;;;;;;5073302;28;20033;-64
2022/03/23 06:26:44;;;;;;;26.05;9.35;;;;;;;;;;5073276;28;20043;-65
2022/03/23 06:29:10;;;;;;;23.05;9.07;;;;;;;;;;5054861;28;20029;-64
2022/03/23 06:31:36;;;;;;;23.67;9.27;;;;;;;;;;5065749;28;20063;-66
2022/03/23 06:34:04;;;;;;;24.23;9.30;;;;;;;;;;5065328;28;20462;-65
2022/03/23 06:36:30;;;;;;;24.73;9.00;;;;;;;;;;5053542;28;20505;-66
2022/03/23 06:38:56;;;;;;;25.33;9.63;;;;;;;;;;5052981;28;20143;-66
2022/03/23 06:41:22;;;;;;;24.40;9.50;;;;;;;;;;5067703;28;20054;-62
2022/03/23 06:43:48;;;;;;;24.50;9.43;;;;;;;;;;5073159;28;20095;-65
2022/03/23 06:46:14;;;;;;;23.00;9.63;;;;;;;;;;5073300;28;20107;-65
2022/03/23 06:48:40;;;;;;;28.23;9.93;;;;;;;;;;5066429;28;20025;-65
2022/03/23 06:51:06;;;;;;;23.90;9.73;;;;;;;;;;5067110;28;20078;-65
2022/03/23 06:53:32;;;;;;;26.17;9.35;;;;;;;;;;5072624;28;20021;-63
2022/03/23 06:55:58;;;;;;;26.25;9.38;;;;;;;;;;5073108;28;20029;-65
2022/03/23 06:58:24;;;;;;;23.60;9.40;;;;;;;;;;5060595;28;20057;-64
2022/03/23 07:00:50;;;;;;;23.48;8.85;;;;;;;;;;5064211;28;20050;-64
2022/03/23 07:03:16;;;;;;;25.65;9.73;;;;;;;;;;5072951;28;20027;-63
2022/03/23 07:05:42;;;;;;;23.25;8.68;;;;;;;;;;5073173;28;20071;-63
2022/03/23 07:10:53;;;;;;;24.63;9.43;;;;;;;;;;5060448;28;20083;-63
2022/03/23 07:13:19;;;;;;;24.35;9.48;;;;;;;;;;5057688;28;20044;-61
2022/03/23 07:15:47;;;;;;;23.60;9.65;;;;;;;;;;5078500;28;20055;-61
2022/03/23 07:18:13;;;;;;;24.75;10.25;;;;;;;;;;5062145;28;20033;-62
2022/03/23 07:20:39;;;;;;;26.65;9.63;;;;;;;;;;5069458;28;20465;-61
2022/03/23 07:23:05;;;;;;;28.10;10.40;;;;;;;;;;5062615;28;20471;-60
2022/03/23 07:25:31;;;;;;;27.60;9.60;;;;;;;;;;5072110;28;20030;-57
2022/03/23 07:27:58;;;;;;;25.42;9.82;;;;;;;;;;5074671;28;20091;-61
2022/03/23 07:30:25;;;;;;;29.50;10.43;;;;;;;;;;5074154;28;20465;-60
2022/03/23 07:32:52;;;;;;;27.63;9.77;;;;;;;;;;5073608;28;20024;-62
2022/03/23 07:35:18;;;;;;;28.52;9.80;;;;;;;;;;5084760;28;20496;-63
2022/03/23 07:37:44;;;;;;;27.95;9.40;;;;;;;;;;5090873;28;20024;-68
2022/03/23 07:40:11;;;;;;;28.20;10.30;;;;;;;;;;5079674;28;20488;-66
2022/03/23 07:42:37;;;;;;;30.52;10.60;;;;;;;;;;5091311;28;20021;-64
2022/03/23 07:45:03;;;;;;;29.25;11.55;;;;;;;;;;5078971;28;20114;-64
2022/03/23 07:47:29;;;;;;;36.42;11.30;;;;;;;;;;5073647;28;20031;-60
2022/03/23 07:49:55;;;;;;;31.92;10.98;;;;;;;;;;5078236;28;20031;-65
2022/03/23 07:52:21;;;;;;;37.92;11.45;;;;;;;;;;5084221;28;20107;-60
2022/03/23 07:54:47;;;;;;;31.00;10.68;;;;;;;;;;5068882;28;20099;-64
2022/03/23 07:57:13;;;;;;;29.00;10.32;;;;;;;;;;5075470;28;20024;-64
2022/03/23 07:59:40;;;;;;;38.78;10.55;;;;;;;;;;5076005;28;20366;-63
2022/03/23 08:02:06;;;;;;;42.70;10.50;;;;;;;;;;5060908;28;20029;-66
2022/03/23 08:04:32;;;;;;;38.15;10.38;;;;;;;;;;5059639;28;20086;-63
2022/03/23 08:07:00;;;;;;;29.75;10.05;;;;;;;;;;5074474;28;20141;-65
2022/03/23 08:09:26;;;;;;;28.02;9.65;;;;;;;;;;5065180;28;20025;-65
2022/03/23 08:11:52;;;;;;;32.25;9.90;;;;;;;;;;5054498;28;20055;-65
2022/03/23 08:14:19;;;;;;;29.75;9.80;;;;;;;;;;5059773;28;20051;-63
2022/03/23 08:16:45;;;;;;;30.77;10.48;;;;;;;;;;5057823;28;20029;-65
2022/03/23 08:19:11;;;;;;;30.33;10.18;;;;;;;;;;5074565;28;20071;-63
2022/03/23 08:21:37;;;;;;;33.33;10.38;;;;;;;;;;5063346;28;20417;-67
2022/03/23 08:24:03;;;;;;;31.17;9.57;;;;;;;;;;5069449;28;20527;-65
2022/03/23 08:26:29;;;;;;;26.60;8.98;;;;;;;;;;5058529;28;20040;-66
2022/03/23 08:28:56;;;;;;;30.20;9.13;;;;;;;;;;5075201;28;20050;-65
2022/03/23 08:31:23;;;;;;;29.38;9.63;;;;;;;;;;5075519;28;20439;-66
2022/03/23 08:33:49;;;;;;;24.95;9.02;;;;;;;;;;5070447;28;20033;-66
2022/03/23 08:36:15;;;;;;;27.80;9.65;;;;;;;;;;5066201;28;20025;-66
2022/03/23 08:38:41;;;;;;;28.02;8.77;;;;;;;;;;5070577;28;20489;-62
2022/03/23 08:41:07;;;;;;;27.17;9.20;;;;;;;;;;5073602;28;20161;-62
2022/03/23 08:43:33;;;;;;;25.45;8.55;;;;;;;;;;5074728;28;20431;-62
2022/03/23 08:46:00;;;;;;;26.63;8.75;;;;;;;;;;5074183;28;20363;-62
2022/03/23 08:48:26;;;;;;;26.83;9.48;;;;;;;;;;5074322;28;20052;-62
2022/03/23 08:50:52;;;;;;;25.42;9.07;;;;;;;;;;5073765;28;20562;-62
2022/03/23 08:53:19;;;;;;;26.05;9.05;;;;;;;;;;5074350;28;20394;-63
2022/03/23 08:55:45;;;;;;;28.85;9.13;;;;;;;;;;5074894;28;20082;-64
2022/03/23 08:58:11;;;;;;;27.42;9.30;;;;;;;;;;5073524;28;20036;-65
2022/03/23 09:00:40;;;;;;;25.75;9.20;;;;;;;;;;5075124;28;20020;-64
2022/03/23 09:03:06;;;;;;;22.58;8.55;;;;;;;;;;5074853;28;20028;-64
2022/03/23 09:05:32;;;;;;;28.25;9.68;;;;;;;;;;5074268;28;20111;-64
2022/03/23 09:08:01;;;;;;;23.60;8.75;;;;;;;;;;5074070;28;20036;-63
2022/03/23 09:10:27;;;;;;;25.75;9.35;;;;;;;;;;5072967;28;20108;-65
2022/03/23 09:12:53;;;;;;;25.77;8.50;;;;;;;;;;5074292;28;20048;-64
2022/03/23 09:15:20;;;;;;;26.90;8.38;;;;;;;;;;5074392;28;20493;-64
2022/03/23 09:17:46;;;;;;;31.13;9.52;;;;;;;;;;5074079;28;20021;-64
2022/03/23 09:20:13;;;;;;;26.95;9.50;;;;;;;;;;5072158;28;20028;-63
2022/03/23 09:22:40;;;;;;;23.80;9.07;;;;;;;;;;5072603;28;20029;-64
2022/03/23 09:25:08;;;;;;;24.35;9.43;;;;;;;;;;5073680;28;20021;-65
2022/03/23 09:27:34;;;;;;;26.92;8.95;;;;;;;;;;5053642;28;20032;-65
2022/03/23 09:30:01;;;;;;;23.98;9.07;;;;;;;;;;5054291;28;20037;-64
2022/03/23 09:32:27;;;;;;;23.15;8.98;;;;;;;;;;5057864;28;20034;-64
2022/03/23 09:34:53;;;;;;;22.95;8.60;;;;;;;;;;5068689;28;20388;-63
2022/03/23 09:40:04;;;;;;;25.80;8.90;;;;;;;;;;5071164;28;20504;-65
2022/03/23 09:42:31;;;;;;;22.77;9.13;;;;;;;;;;5073427;28;20473;-63
2022/03/23 09:44:57;;;;;;;27.95;9.88;;;;;;;;;;5069857;28;20012;-64
2022/03/23 09:47:23;;;;;;;23.52;9.27;;;;;;;;;;5072728;28;20036;-62
2022/03/23 09:49:50;;;;;;;24.40;9.85;;;;;;;;;;5073629;28;20070;-65
2022/03/23 09:52:16;;;;;;;24.50;9.35;;;;;;;;;;5071632;28;20025;-64
2022/03/23 09:54:45;;;;;;;24.50;9.50;;;;;;;;;;5073475;28;20419;-64
2022/03/23 09:57:11;;;;;;;25.45;10.02;;;;;;;;;;5072186;28;20028;-65
2022/03/23 09:59:37;;;;;;;26.83;9.48;;;;;;;;;;5068168;28;20090;-64
2022/03/23 10:02:03;;;;;;;23.48;9.35;;;;;;;;;;5073119;28;20498;-64
2022/03/23 10:05:07;;;;;;;23.83;9.35;;;;;;;;;;5072308;28;20423;-64
2022/03/23 10:07:36;;;;;;;29.05;11.35;;;;;;;;;;5072122;28;20040;-64
2022/03/23 10:10:31;;;;;;;27.40;10.20;;;;;;;;;;5072211;28;20032;-63
2022/03/23 10:13:17;;;;;;;32.30;12.60;;;;;;;;;;5072048;28;20715;-63
2022/03/23 10:16:02;;;;;;;29.50;12.32;;;;;;;;;;5071547;28;20020;-64
2022/03/23 10:18:46;;;;;;;28.65;11.85;;;;;;;;;;5079179;28;20028;-64
2022/03/23 10:21:13;;;;;;;29.05;12.60;;;;;;;;;;5075561;28;20107;-63
2022/03/23 10:23:39;;;;;;;31.50;12.20;;;;;;;;;;5088513;28;20103;-64
2022/03/23 10:26:13;;;;;;;27.90;12.88;;;;;;;;;;5081076;28;20108;-64
2022/03/23 10:28:39;;;;;;;33.58;13.02;;;;;;;;;;5079148;28;20075;-64
2022/03/23 10:31:18;;;;;;;27.92;12.90;;;;;;;;;;5083137;28;20028;-63
2022/03/23 10:33:56;;;;;;;32.47;13.85;;;;;;;;;;5086690;28;20048;-63
2022/03/23 10:36:23;;;;;;;31.67;14.82;;;;;;;;;;5083768;28;20208;-63
2022/03/23 10:38:49;;;;;;;31.95;14.05;;;;;;;;;;5081632;28;20035;-63
2022/03/23 10:41:25;;;;;;;32.35;13.45;;;;;;;;;;5075874;28;20072;-63
2022/03/23 10:43:51;;;;;;;31.33;13.75;;;;;;;;;;5086536;28;20017;-63
2022/03/23 10:46:17;;;;;;;29.42;13.25;;;;;;;;;;5082339;28;20020;-62
2022/03/23 10:48:58;;;;;;;31.25;13.93;;;;;;;;;;5078944;28;20032;-63
2022/03/23 10:51:27;;;;;;;28.38;12.43;;;;;;;;;;5089502;28;20043;-63
2022/03/23 10:53:54;;;;;;;30.77;13.02;;;;;;;;;;5079325;28;20107;-63
2022/03/23 10:56:29;;;;;;;28.05;12.38;;;;;;;;;;5080699;28;20032;-63
2022/03/23 10:59:15;;;;;;;28.88;11.95;;;;;;;;;;5087751;28;20055;-63
2022/03/23 11:02:01;;;;;;;30.70;12.23;;;;;;;;;;5062542;28;20059;-63
2022/03/23 11:04:29;;;;;;;27.92;12.57;;;;;;;;;;5081233;28;20024;-63
2022/03/23 11:06:56;;;;;;;29.35;12.57;;;;;;;;;;5083331;28;20019;-63
2022/03/23 11:17:48;;;;;;;176.02;92.13;;;;;;;;;;5064724;28;20035;-64
2022/03/23 11:20:16;;;;;;;79.13;41.95;;;;;;;;;;5081836;28;20025;-65
2022/03/23 11:22:43;;;;;;;57.92;32.13;;;;;;;;;;5070786;28;20021;-63
2022/03/23 11:25:09;;;;;;;50.15;26.27;;;;;;;;;;5086537;28;20495;-68
2022/03/23 11:27:37;;;;;;;50.00;22.65;;;;;;;;;;5075728;28;20125;-65
2022/03/23 11:30:03;;;;;;;41.13;19.48;;;;;;;;;;5082950;28;20048;-65
2022/03/23 11:32:37;;;;;;;40.10;19.88;;;;;;;;;;5072437;28;20036;-68
2022/03/23 11:35:04;;;;;;;45.30;25.70;;;;;;;;;;5071235;28;20020;-65
2022/03/23 11:37:32;;;;;;;46.63;25.15;;;;;;;;;;5070754;28;20024;-63
2022/03/23 11:39:58;;;;;;;40.53;20.65;;;;;;;;;;5077628;28;20877;-66
2022/03/23 11:42:25;;;;;;;34.55;16.95;;;;;;;;;;5072066;28;20443;-65
2022/03/23 11:44:51;;;;;;;34.95;16.30;;;;;;;;;;5081256;28;20086;-68
2022/03/23 11:47:36;;;;;;;36.25;16.48;;;;;;;;;;5077279;28;20020;-71
2022/03/23 11:50:02;;;;;;;34.95;15.57;;;;;;;;;;5069231;28;20363;-67
2022/03/23 11:52:34;;;;;;;34.80;15.45;;;;;;;;;;5075397;28;20040;-68
2022/03/23 11:55:37;;;;;;;33.95;15.13;;;;;;;;;;5085761;28;20021;-64
2022/03/23 11:58:03;;;;;;;40.42;15.23;;;;;;;;;;5066647;28;20657;-69
2022/03/23 12:00:37;;;;;;;32.63;15.93;;;;;;;;;;5062827;28;20032;-67
2022/03/23 12:03:03;;;;;;;34.80;15.82;;;;;;;;;;5068496;28;20040;-67
2022/03/23 12:05:31;;;;;;;34.08;14.93;;;;;;;;;;5069965;28;20036;-67
2022/03/23 12:07:57;;;;;;;32.08;13.10;;;;;;;;;;5070083;28;20035;-67
2022/03/23 12:10:26;;;;;;;31.35;11.70;;;;;;;;;;5077537;28;20031;-67
2022/03/23 12:12:52;;;;;;;27.63;11.13;;;;;;;;;;5072467;28;20041;-67
2022/03/23 12:15:22;;;;;;;27.55;10.98;;;;;;;;;;5073573;28;20013;-66
2022/03/23 12:17:54;;;;;;;33.10;11.80;;;;;;;;;;5068585;28;20155;-67
2022/03/23 12:20:37;;;;;;;29.00;11.55;;;;;;;;;;5073342;28;20803;-67
2022/03/23 12:23:16;;;;;;;25.88;9.75;;;;;;;;;;5064546;28;20021;-66
2022/03/23 12:25:42;;;;;;;28.98;9.30;;;;;;;;;;5074435;28;20025;-66
2022/03/23 12:28:17;;;;;;;25.10;10.07;;;;;;;;;;5075233;28;20032;-65
2022/03/23 12:31:05;;;;;;;25.05;10.60;;;;;;;;;;5074621;28;20385;-66
2022/03/23 12:33:31;;;;;;;32.67;13.02;;;;;;;;;;5074333;28;20025;-66
2022/03/23 12:36:01;;;;;;;34.47;12.60;;;;;;;;;;5074091;28;20085;-65
2022/03/23 12:38:29;;;;;;;42.88;20.60;;;;;;;;;;5076135;28;20031;-69
2022/03/23 12:41:02;;;;;;;35.60;16.50;;;;;;;;;;5075985;28;20472;-66
2022/03/23 12:43:37;;;;;;;32.35;15.48;;;;;;;;;;5091630;28;20112;-66
2022/03/23 12:46:18;;;;;;;31.17;12.90;;;;;;;;;;5078698;28;20361;-66
2022/03/23 13:00:08;;;;;;;23.85;9.48;;;;;;;;;;5075249;28;20074;-67
2022/03/23 13:02:35;;;;;;;24.50;10.10;;;;;;;;;;5080951;28;20028;-66
2022/03/23 13:05:05;;;;;;;26.02;9.93;;;;;;;;;;5083363;28;20024;-67
2022/03/23 13:07:31;;;;;;;25.90;9.75;;;;;;;;;;5083443;28;20020;-67
2022/03/23 13:10:08;;;;;;;30.08;10.10;;;;;;;;;;5081342;28;20020;-67
2022/03/23 13:12:34;;;;;;;29.35;10.60;;;;;;;;;;5079667;28;20389;-66
2022/03/23 13:15:00;;;;;;;27.92;11.25;;;;;;;;;;5080046;28;20436;-66
2022/03/23 13:17:27;;;;;;;28.23;10.63;;;;;;;;;;5082736;28;20020;-66
2022/03/23 13:19:56;;;;;;;26.92;11.02;;;;;;;;;;5078689;28;20103;-65
2022/03/23 13:22:32;;;;;;;29.25;11.88;;;;;;;;;;5077786;28;20032;-66
2022/03/23 13:25:03;;;;;;;30.33;12.13;;;;;;;;;;5079877;28;20381;-66
2022/03/23 13:27:29;;;;;;;27.77;11.60;;;;;;;;;;5082273;28;20024;-65
2022/03/23 13:29:59;;;;;;;30.05;12.05;;;;;;;;;;5081182;28;20042;-66
2022/03/23 13:32:32;;;;;;;30.13;12.15;;;;;;;;;;5079275;28;20032;-65
2022/03/23 13:34:59;;;;;;;29.63;12.38;;;;;;;;;;5089757;28;20028;-65
2022/03/23 13:37:25;;;;;;;29.88;12.48;;;;;;;;;;5077207;28;20023;-66
2022/03/23 13:39:51;;;;;;;32.30;12.20;;;;;;;;;;5072985;28;20016;-66
2022/03/23 13:45:10;;;;;;;28.63;11.75;;;;;;;;;;5086529;28;20067;-66
2022/03/23 13:47:35;;;;;;;27.70;11.98;;;;;;;;;;5079940;28;20032;-65
2022/03/23 13:50:03;;;;;;;28.23;12.07;;;;;;;;;;5082463;28;20432;-68
2022/03/23 13:52:29;;;;;;;32.65;11.68;;;;;;;;;;5082865;28;20149;-66
2022/03/23 13:54:59;;;;;;;26.42;11.40;;;;;;;;;;5082541;28;20008;-66
2022/03/23 13:57:26;;;;;;;29.33;12.07;;;;;;;;;;5071112;28;20115;-66
2022/03/23 13:59:53;;;;;;;26.67;12.38;;;;;;;;;;5079432;28;20032;-66
2022/03/23 14:02:23;;;;;;;28.70;12.05;;;;;;;;;;5079918;28;20028;-67
2022/03/23 14:04:49;;;;;;;29.60;11.57;;;;;;;;;;5083838;28;20095;-67
2022/03/23 14:07:16;;;;;;;31.63;13.80;;;;;;;;;;5084079;28;20343;-66
2022/03/23 14:09:42;;;;;;;31.88;13.00;;;;;;;;;;5084270;28;20016;-67
2022/03/23 14:12:11;;;;;;;27.10;12.05;;;;;;;;;;5081510;28;20043;-67
2022/03/23 14:14:39;;;;;;;29.15;11.93;;;;;;;;;;5082424;28;20028;-66
2022/03/23 14:17:15;;;;;;;31.98;11.73;;;;;;;;;;5075397;28;20032;-67
2022/03/23 14:19:43;;;;;;;28.48;10.77;;;;;;;;;;5076585;28;20032;-66
2022/03/23 14:22:11;;;;;;;30.20;11.38;;;;;;;;;;5082404;28;20081;-68
2022/03/23 14:24:38;;;;;;;31.58;12.80;;;;;;;;;;5083565;28;20031;-65
2022/03/23 14:27:16;;;;;;;31.13;11.80;;;;;;;;;;5086951;28;20503;-64
2022/03/23 14:32:35;;;;;;;27.55;11.48;;;;;;;;;;5080270;28;20044;-64
2022/03/23 14:35:02;;;;;;;31.02;12.18;;;;;;;;;;5068193;28;20028;-63
2022/03/23 14:37:38;;;;;;;32.88;11.45;;;;;;;;;;5071231;28;20107;-64
2022/03/23 14:40:19;;;;;;;28.33;12.13;;;;;;;;;;5070842;28;20085;-67
2022/03/23 14:42:45;;;;;;;27.88;11.90;;;;;;;;;;5069996;28;20112;-65
2022/03/23 14:45:32;;;;;;;29.40;11.73;;;;;;;;;;5069577;28;20078;-64
2022/03/23 14:48:00;;;;;;;30.80;12.65;;;;;;;;;;5071786;28;20052;-64
2022/03/23 14:50:26;;;;;;;34.20;13.35;;;;;;;;;;5072487;28;20020;-64
2022/03/23 14:52:53;;;;;;;28.27;12.38;;;;;;;;;;5071320;28;20086;-65
2022/03/23 14:55:20;;;;;;;30.38;12.65;;;;;;;;;;5072653;28;20070;-65
2022/03/23 14:57:46;;;;;;;28.92;11.90;;;;;;;;;;5071354;28;20477;-65
2022/03/23 15:00:13;;;;;;;27.17;11.63;;;;;;;;;;5071817;28;20090;-64
2022/03/23 15:02:39;;;;;;;30.80;12.45;;;;;;;;;;5072954;28;20103;-63
2022/03/23 15:13:15;;;;;;;26.77;11.43;;;;;;;;;;5071336;28;20074;-64